Air Quality Table

TIMESTAMP NO2 SO2 PM10 PM2.5 CO TEMP HUM AIRPRES WS WD NO
2022-01-24 19:00 18.54 µg/m3 0.31 µg/m3 9.38 µg/m3 3.64 µg/m3 0.3 mg/m3 10.74 °C 78.67 % 1,022.52 mbar 0.75 m/s 268.9 Deg 3.32 µg/m3
2022-01-24 18:00 11.18 µg/m3 0.24 µg/m3 9.46 µg/m3 3.66 µg/m3 0.3 mg/m3 11.34 °C 77.32 % 1,022.11 mbar 1.1 m/s 278.39 Deg 1.84 µg/m3
2022-01-24 17:00 11.06 µg/m3 0.35 µg/m3 9.17 µg/m3 3.41 µg/m3 0.34 mg/m3 11.98 °C 69.3 % 1,021.70 mbar 1.67 m/s 254.98 Deg 2.27 µg/m3
2022-01-24 16:00 4.92 µg/m3 0.21 µg/m3 8.92 µg/m3 3.09 µg/m3 0.27 mg/m3 12.2 °C 65.95 % 1,021.67 mbar 2.55 m/s 262.88 Deg 1.13 µg/m3
2022-01-24 15:00 8.01 µg/m3 0.25 µg/m3 9.05 µg/m3 3.06 µg/m3 0.25 mg/m3 12.51 °C 62.04 % 1,021.52 mbar 2.46 m/s 309.87 Deg 2.23 µg/m3
2022-01-24 14:00 2.9 µg/m3 0.2 µg/m3 9.46 µg/m3 3.17 µg/m3 0.27 mg/m3 12.63 °C 65.67 % 1,021.74 mbar 2.07 m/s 262.19 Deg 1.06 µg/m3
2022-01-24 13:00 3.93 µg/m3 0.29 µg/m3 9.2 µg/m3 3.05 µg/m3 0.26 mg/m3 13.15 °C 58.29 % 1,022.40 mbar 2.33 m/s 336.63 Deg 1.35 µg/m3
2022-01-24 12:00 6.49 µg/m3 0.28 µg/m3 9.69 µg/m3 3.16 µg/m3 0.25 mg/m3 12.98 °C 58.2 % 1,023.07 mbar 2.23 m/s 336.31 Deg 1.51 µg/m3
2022-01-24 11:00 4.53 µg/m3 0.32 µg/m3 9.8 µg/m3 3.2 µg/m3 0.24 mg/m3 12.74 °C 59.87 % 1,023.45 mbar 2.07 m/s 82 Deg 1.01 µg/m3
2022-01-24 10:00 22.35 µg/m3 0.51 µg/m3 10.85 µg/m3 3.49 µg/m3 0.25 mg/m3 12.25 °C 57.03 % 1,023.33 mbar 2.04 m/s 292.53 Deg 8.01 µg/m3
2022-01-24 09:00 42.11 µg/m3 0.7 µg/m3 10.76 µg/m3 3.71 µg/m3 0.24 mg/m3 11.88 °C 54.92 % 1,023.07 mbar 1.75 m/s 287.49 Deg 13.8 µg/m3
2022-01-24 08:00 33.43 µg/m3 0.69 µg/m3 9.98 µg/m3 3.45 µg/m3 0.26 mg/m3 11.41 °C 56.29 % 1,022.92 mbar 1.4 m/s 297.08 Deg 10.26 µg/m3
2022-01-24 07:00 38.87 µg/m3 0.91 µg/m3 10.47 µg/m3 3.92 µg/m3 0.39 mg/m3 11.13 °C 62.02 % 1,022.76 mbar 1.26 m/s 318.98 Deg 13.55 µg/m3
2022-01-24 06:00 19.73 µg/m3 0.9 µg/m3 9.32 µg/m3 3.3 µg/m3 0.2 mg/m3 11.5 °C 52.88 % 1,022.70 mbar 1.01 m/s 280.27 Deg 6.56 µg/m3
2022-01-24 05:00 12.13 µg/m3 0.84 µg/m3 9.04 µg/m3 3.23 µg/m3 0.14 mg/m3 11.67 °C 53.21 % 1,022.93 mbar 0.91 m/s 249.73 Deg 2.86 µg/m3
2022-01-24 04:00 19.7 µg/m3 0.79 µg/m3 8.71 µg/m3 3.15 µg/m3 0.2 mg/m3 11.57 °C 55.69 % 1,023.20 mbar 1.15 m/s 178.46 Deg 0.91 µg/m3
2022-01-24 03:00 14.31 µg/m3 0.76 µg/m3 8.7 µg/m3 3.06 µg/m3 0.19 mg/m3 11.57 °C 54.04 % 1,023.54 mbar 1.04 m/s 289.67 Deg 0.6 µg/m3
2022-01-24 02:00 23.78 µg/m3 0.48 µg/m3 8.82 µg/m3 3.16 µg/m3 0.21 mg/m3 11.56 °C 60.87 % 1,023.72 mbar 0.96 m/s 296.87 Deg 1.23 µg/m3
2022-01-24 01:00 18.98 µg/m3 0.36 µg/m3 8.89 µg/m3 3.26 µg/m3 0.23 mg/m3 11.64 °C 64.06 % 1,023.83 mbar 0.82 m/s 267.07 Deg 0.5 µg/m3
2022-01-24 00:00 20.37 µg/m3 0.34 µg/m3 9.18 µg/m3 3.43 µg/m3 0.25 mg/m3 11.94 °C 62.97 % 1,023.98 mbar 0.96 m/s 241.79 Deg 0.4 µg/m3
2022-01-23 23:00 42.5 µg/m3 0.27 µg/m3 12.13 µg/m3 5.52 µg/m3 0.35 mg/m3 11.65 °C 62.88 % 1,023.86 mbar 1.83 m/s 204.06 Deg 1.64 µg/m3
2022-01-23 22:00 39.03 µg/m3 0.26 µg/m3 11.83 µg/m3 5.44 µg/m3 0.35 mg/m3 11.6 °C 62.79 % 1,023.98 mbar 2.48 m/s 200.18 Deg 1.61 µg/m3
2022-01-23 21:00 33.3 µg/m3 0.22 µg/m3 12.01 µg/m3 5.34 µg/m3 0.35 mg/m3 11.71 °C 61.94 % 1,024.08 mbar 2.44 m/s 198.01 Deg 0.49 µg/m3

It is to be noted that the data is provisional and subject to quality assurance procedures. For validated data kindly refer your request to contact.air@era.org.mt